Friday, April 20, 2018, 10:32 AM GMT
Back to Local

CYQI, Yarmouth, N. S.

Location: , , Canada Lat: 43.833
Local Time: 10:32 AM GMT (10:32 GMT) Lon: -66.083
Time Zone: GMT Elev: 141 ft

Show me the last for .
Show Decoded

2018-04-20 10:00 METAR CYQI 201000Z 30008KT 4SM -RA BR FEW007 OVC015 02/02 A2969 RMK SF2NS6
                 SLP056 =
2018-04-20 09:40 METAR CYQI 200940Z 30007KT 3SM -SHRA BR SCT006 OVC015 02/02 A2968 RMK FG1SF3NS4
                 CVCTV CLD EMBD SLP052 =
2018-04-20 09:00 METAR CYQI 200900Z 29006KT 2 1/2SM -SHRA BR OVC016 02/02 A2966 RMK FG2NS6 CVCTV
                 CLD EMBD SLP048 =
2018-04-20 08:26 METAR CYQI 200826Z 30006KT 2 1/2SM -SHRA BR OVC016 02/02 A2965 RMK FG3NS5 CVCTV
                 CLD EMBD SLP044 =
2018-04-20 08:00 METAR CYQI 200800Z 30005KT 5SM -SHRA BR OVC018 02/01 A2965 RMK FG1NS7 CVCTV CLD
                 EMBD SLP044 =
2018-04-20 07:24 METAR CYQI 200724Z 32006KT 2SM -SHRA OVC028 02/01 A2965 RMK FG6NS2 CVCTV CLD
                 EMBD SLP042
2018-04-20 07:00 METAR CYQI 200700Z 30005KT 2SM BR OVC015 02/01 A2965 RMK FG6ST2 SLP045 =
2018-04-20 06:26 METAR CYQI 200626Z 32005KT 2SM BR OVC021 01/01 A2965 RMK FG6NS2 SLP044 =
2018-04-20 06:00 METAR CYQI 200600Z 31005KT 2SM -DZ BR OVC021 01/01 A2966 RMK FG6NS2 SLP048 =
2018-04-20 05:32 METAR CYQI 200532Z 32006KT 2SM -DZ BR OVC018 01/01 A2964 RMK FG6NS2 SLP041 =
2018-04-20 05:00 METAR CYQI 200500Z 31005KT 2SM BR SCT002 BKN015 OVC035 01/00 A2966 RMK SF3SC2NS3
                 SLP047 =
2018-04-20 04:54 METAR CYQI 200454Z 30006KT 2SM BR FEW003 BKN015 OVC036 01/00 A2966 RMK SF2SC4NS2
                 SLP047 =
2018-04-20 04:00 METAR CYQI 200400Z 30006KT 2 1/2SM -SN FEW003 SCT015 OVC037 00/M00 A2966 RMK
                 SF1SC2NS5 SLP047 =
2018-04-20 03:25 METAR CYQI 200325Z 31004KT 2 1/2SM -SN FEW003 SCT013 OVC036 00/M00 A2965 RMK
                 SF1SC2NS5 SLP045 =
2018-04-20 03:00 METAR CYQI 200300Z 32005KT 2 1/2SM -RASN FEW003 SCT020 OVC035 00/M00 A2966 RMK
                 SF1SC3NS4 SLP048 =
2018-04-20 02:25 METAR CYQI 200225Z 32006KT 2 1/2SM -RASN FEW003 SCT017 OVC024 00/00 A2967 RMK
                 SF2SC2NS4 SLP049 =
2018-04-20 02:00 METAR CYQI 200200Z 33006KT 2 1/2SM -RA FEW003 OVC015 01/00 A2966 RMK SF2NS6
                 SLP048 =
2018-04-20 01:00 METAR CYQI 200100Z 33005KT 3SM -RA FEW028 OVC041 01/00 A2968 RMK SF2NS6 SLP052 =
2018-04-20 00:26 METAR CYQI 200026Z 01006KT 4SM -RA OVC041 01/00 A2965 RMK NS8 SLP042 =
2018-04-20 00:00 METAR CYQI 200000Z 04007KT 3SM -RASN OVC031 01/00 A2964 RMK NS8 PRESFR SLP041 =
2018-04-19 23:00 METAR CYQI 192300Z 01005KT 4SM -RASN OVC028 01/00 A2967 RMK NS8 SLP049 =
2018-04-19 22:00 METAR CYQI 192200Z 02004KT 5SM -RASN OVC015 02/02 A2966 RMK NS8 SLP047 =
2018-04-19 21:50 METAR CYQI 192150Z 01003KT 5SM -RASN OVC016 03/02 A2966 RMK NS8 PRESRR SLP047 =
2018-04-19 21:10 METAR CYQI 192110Z 10005KT 5SM -RA BR SCT005 OVC058 03/02 A2964 RMK SF3NS5
                 SLP041 =
2018-04-19 21:00 METAR CYQI 192100Z 10005KT 4SM -RA BR BKN008 OVC025 03/02 A2965 RMK SF6NS2
                 SLP042 =
2018-04-19 20:00 METAR CYQI 192000Z VRB02KT 7SM -RA BKN008 OVC025 04/03 A2967 RMK SC7NS1 SLP051 =
2018-04-19 19:51 METAR CYQI 191951Z 00000KT 6SM -RA BKN007 OVC024 04/03 A2968 RMK SC6NS2 SLP054 =
2018-04-19 19:34 METAR CYQI 191934Z VRB02KT 6SM -RAPL SCT010 OVC066 04/02 A2968 RMK SC3AS5 SLP054
                 =
2018-04-19 19:00 METAR CYQI 191900Z 17003KT 080V180 9SM -RA FEW009 OVC068 04/02 A2969 RMK CF1AS7
                 SLP058 =
2018-04-19 18:35 METAR CYQI 191835Z 17003KT 9SM -RA FEW011 FEW040 OVC068 04/02 A2970 RMK
                 CF1NS1AS7 CF TR SLP060 =
2018-04-19 18:29 METAR CYQI 191829Z 17004KT 9SM -RAPL FEW011 FEW040 OVC068 04/02 A2970 RMK
                 CF1NS1AS7 CF TR SLP060 =
2018-04-19 18:00 METAR CYQI 191800Z 23005KT 7SM -RA FEW012 OVC038 04/03 A2972 RMK CF1NS8 CF TR
                 SLP068 =
2018-04-19 17:56 METAR CYQI 191756Z 21004KT 7SM -RA FEW012 OVC040 04/02 A2971 RMK CF1NS8 CF TR
                 SLP064 =
2018-04-19 17:49 METAR CYQI 191749Z 23005KT 9SM -RAPL FEW012 OVC038 04/02 A2972 RMK CU1NS8 CU TR
                 SLP067 =
2018-04-19 17:21 METAR CYQI 191721Z 22005KT 12SM FEW011 OVC035 04/02 A2972 RMK CU1NS7 SLP066 =
2018-04-19 17:00 METAR CYQI 191700Z 22007KT 10SM -RA FEW012 OVC034 04/02 A2973 RMK SC1NS8 SC TR
                 PRESRR SLP069 =
2018-04-19 16:00 METAR CYQI 191600Z 23008KT 12SM -RA FEW015 OVC040 05/02 A2971 RMK SC1NS8 SC TR
                 SLP064 =
2018-04-19 15:00 METAR CYQI 191500Z 22011KT 9SM -RA FEW015 OVC032 06/03 A2973 RMK CU1NS8 CU TR
                 SLP070 =
2018-04-19 14:44 METAR CYQI 191444Z 22009G15KT 12SM -RA FEW018 OVC040 06/03 A2974 RMK SC1NS8 SC
                 TR SLP073 =
2018-04-19 14:00 METAR CYQI 191400Z 23010G16KT 15SM FEW018 FEW080 BKN120 BKN220 06/02 A2973 RMK
                 CU1AC1AS6CI1 CU TR CI TR SLP072 =
2018-04-19 13:00 METAR CYQI 191300Z 24012G19KT 12SM FEW018 FEW110 BKN210 07/03 A2973 RMK
                 CU1AC1CI5 CU TR CC ASOCTD PRESRR SLP072 =
2018-04-19 12:00 METAR CYQI 191200Z 24011KT 12SM FEW072 BKN110 06/03 A2972 RMK AC1AC5 SLP066 =
2018-04-19 11:00 METAR CYQI 191100Z 23011KT 15SM BKN055 BKN100 05/03 A2971 RMK SC5AC2 SLP062 =

Support USWX by starting your Amazon purchase here.